createdAt,value
2023-05-25T00:03:32.380Z,10.33
2023-05-25T00:08:35.798Z,10.36
2023-05-25T00:13:38.554Z,10.48
2023-05-25T00:18:43.409Z,10.52
2023-05-25T00:23:46.226Z,10.39
2023-05-25T00:28:49.188Z,10.18
2023-05-25T00:33:53.346Z,10.33
2023-05-25T00:38:56.269Z,10.25
2023-05-25T00:43:59.076Z,9.92
2023-05-25T00:49:03.300Z,10.08
2023-05-25T00:54:06.423Z,10.10
2023-05-25T00:59:09.428Z,9.91
2023-05-25T01:04:15.498Z,9.94
2023-05-25T01:09:19.505Z,9.87
2023-05-25T01:14:22.974Z,9.94
2023-05-25T01:19:28.471Z,9.91
2023-05-25T01:24:36.431Z,9.76
2023-05-25T01:29:41.443Z,9.62
2023-05-25T01:34:44.704Z,9.74
2023-05-25T01:39:48.940Z,9.73
2023-05-25T01:44:51.999Z,9.71
2023-05-25T01:50:00.765Z,9.68
2023-05-25T01:55:08.331Z,9.72
2023-05-25T02:00:14.417Z,9.69
2023-05-25T02:05:17.296Z,9.43
2023-05-25T02:10:23.199Z,9.42
2023-05-25T02:15:26.009Z,9.48
2023-05-25T02:20:29.196Z,9.45
2023-05-25T02:25:33.389Z,9.17
2023-05-25T02:30:36.360Z,9.20
2023-05-25T02:35:39.303Z,9.21
2023-05-25T02:40:44.169Z,9.09
2023-05-25T02:45:47.037Z,9.14
2023-05-25T02:50:50.041Z,9.13
2023-05-25T02:55:54.175Z,9.13
2023-05-25T03:01:00.799Z,9.06
2023-05-25T03:06:05.125Z,9.08
2023-05-25T03:11:09.746Z,9.13
2023-05-25T03:16:12.937Z,9.00
2023-05-25T03:21:16.325Z,8.96
2023-05-25T03:26:21.254Z,8.88
2023-05-25T03:31:25.527Z,8.92
2023-05-25T03:36:30.880Z,8.90
2023-05-25T03:41:35.132Z,8.81
2023-05-25T03:46:38.133Z,8.94
2023-05-25T03:51:41.607Z,8.88
2023-05-25T03:56:45.960Z,8.89
2023-05-25T04:01:48.750Z,8.98
2023-05-25T04:06:51.835Z,9.02
2023-05-25T04:11:56.169Z,9.08
2023-05-25T04:16:59.259Z,9.16
2023-05-25T04:22:02.159Z,9.22
2023-05-25T04:27:07.278Z,9.26
2023-05-25T04:32:10.693Z,9.23
2023-05-25T04:37:21.527Z,9.35
2023-05-25T04:42:26.905Z,9.46
2023-05-25T04:47:31.314Z,9.48
2023-05-25T04:52:34.194Z,9.49
2023-05-25T04:57:38.716Z,9.56
2023-05-25T05:02:41.714Z,9.68
2023-05-25T05:07:45.031Z,9.71
2023-05-25T05:12:49.646Z,9.86
2023-05-25T05:17:52.506Z,9.56
2023-05-25T05:22:55.470Z,9.57
2023-05-25T05:27:59.942Z,9.74
2023-05-25T05:33:09.664Z,9.89
2023-05-25T05:38:20.399Z,9.97
2023-05-25T05:43:25.243Z,10.10
2023-05-25T05:48:28.922Z,10.27
2023-05-25T05:53:32.348Z,10.40
2023-05-25T05:58:36.873Z,10.65
2023-05-25T06:03:40.872Z,10.70
2023-05-25T06:08:44.419Z,10.85
2023-05-25T06:13:50.022Z,11.22
2023-05-25T06:18:54.185Z,11.52
2023-05-25T06:23:58.019Z,11.68
2023-05-25T06:29:02.500Z,11.87
2023-05-25T06:34:05.643Z,11.78
2023-05-25T06:39:08.724Z,11.69
2023-05-25T06:44:13.067Z,11.79
2023-05-25T06:49:21.791Z,11.68
2023-05-25T06:54:24.688Z,11.85
2023-05-25T06:59:28.917Z,12.05
2023-05-25T07:04:33.048Z,12.12
2023-05-25T07:09:36.137Z,12.29
2023-05-25T07:14:40.334Z,12.48
2023-05-25T07:19:43.419Z,12.65
2023-05-25T07:24:46.937Z,12.87
2023-05-25T07:29:51.291Z,13.10
2023-05-25T07:34:55.493Z,13.16
2023-05-25T07:39:58.329Z,13.36
2023-05-25T07:45:02.993Z,13.57
2023-05-25T07:50:06.932Z,13.68
2023-05-25T07:55:10.869Z,13.89
2023-05-25T08:00:16.205Z,13.98
2023-05-25T08:05:19.833Z,13.92
2023-05-25T08:10:23.439Z,13.89
2023-05-25T08:15:27.877Z,13.97
2023-05-25T08:20:30.808Z,14.16
2023-05-25T08:25:33.733Z,14.38
2023-05-25T08:30:38.135Z,14.49
2023-05-25T08:35:43.200Z,14.54
2023-05-25T08:40:46.644Z,14.59
2023-05-25T08:45:51.501Z,14.68
2023-05-25T08:50:54.567Z,14.77
2023-05-25T08:55:57.800Z,14.97
2023-05-25T09:01:04.875Z,15.28
2023-05-25T09:06:08.384Z,15.57
2023-05-25T09:11:16.214Z,15.60
2023-05-25T09:16:21.753Z,15.60
2023-05-25T09:21:24.552Z,15.71
2023-05-25T09:26:27.638Z,15.76
2023-05-25T09:31:32.607Z,15.97
2023-05-25T09:36:35.620Z,16.08
2023-05-25T09:41:38.551Z,16.12
2023-05-25T09:46:45.062Z,16.15
2023-05-25T09:51:49.130Z,16.25
2023-05-25T09:56:52.792Z,16.19
2023-05-25T10:01:57.884Z,16.06
2023-05-25T10:07:02.017Z,16.06
2023-05-25T10:12:05.068Z,16.01
2023-05-25T10:17:12.449Z,16.04
2023-05-25T10:22:17.549Z,16.20
2023-05-25T10:27:27.094Z,16.30
2023-05-25T10:32:33.071Z,16.33
2023-05-25T10:37:35.894Z,16.58
2023-05-25T10:42:39.089Z,16.62
2023-05-25T10:47:43.660Z,16.42
2023-05-25T10:52:46.620Z,16.48
2023-05-25T10:58:08.454Z,16.82
2023-05-25T11:03:12.762Z,17.12
2023-05-25T11:08:17.721Z,17.34
2023-05-25T11:13:25.386Z,17.25
2023-05-25T11:18:39.487Z,17.18
2023-05-25T11:23:54.105Z,16.96
2023-05-25T11:28:58.987Z,17.08
2023-05-25T11:34:05.204Z,17.36
2023-05-25T11:39:14.208Z,17.82
2023-05-25T11:44:29.325Z,18.26
2023-05-25T11:49:33.521Z,18.47
2023-05-25T11:54:36.986Z,18.59
2023-05-25T11:59:40.997Z,18.65
2023-05-25T12:04:54.155Z,19.01
2023-05-25T12:10:07.034Z,19.18
2023-05-25T12:15:11.351Z,18.83
2023-05-25T12:20:17.111Z,18.73
2023-05-25T12:25:22.606Z,19.18
2023-05-25T12:30:29.466Z,19.61
2023-05-25T12:35:46.298Z,20.04
2023-05-25T12:40:49.354Z,20.55
2023-05-25T12:45:52.724Z,20.96
2023-05-25T12:51:00.817Z,21.34
2023-05-25T12:56:04.309Z,21.75
2023-05-25T13:01:09.459Z,21.25
2023-05-25T13:06:14.035Z,21.79
2023-05-25T13:11:16.916Z,22.27
2023-05-25T13:16:19.767Z,22.75
2023-05-25T13:21:25.376Z,23.09
2023-05-25T13:26:28.250Z,23.24
2023-05-25T13:31:31.063Z,23.67
2023-05-25T13:36:35.674Z,24.08
2023-05-25T13:41:38.804Z,24.63
2023-05-25T13:46:41.914Z,25.24
2023-05-25T13:51:46.076Z,25.57
2023-05-25T13:56:49.056Z,26.22
2023-05-25T14:01:53.587Z,26.92
2023-05-25T14:06:59.451Z,27.54
2023-05-25T14:12:03.087Z,28.54
2023-05-25T14:17:06.238Z,29.13
2023-05-25T14:22:13.219Z,30.25
2023-05-25T14:27:21.042Z,31.25
2023-05-25T14:32:24.113Z,32.84
2023-05-25T14:37:28.385Z,40.03
2023-05-25T14:42:31.299Z,53.65
2023-05-25T14:47:34.261Z,55.92
2023-05-25T14:52:38.486Z,54.25
2023-05-25T14:57:41.426Z,56.82
2023-05-25T15:02:44.634Z,56.29
2023-05-25T15:07:49.040Z,56.19
2023-05-25T15:12:52.058Z,53.76
2023-05-25T15:17:54.935Z,49.63
2023-05-25T15:22:59.192Z,52.90
2023-05-25T15:28:02.069Z,53.44
2023-05-25T15:33:05.050Z,54.14
2023-05-25T15:38:09.361Z,53.94
2023-05-25T15:43:12.311Z,48.38
2023-05-25T15:48:15.070Z,48.22
2023-05-25T15:53:19.286Z,48.18
2023-05-25T15:58:22.482Z,46.62
2023-05-25T16:03:26.065Z,46.39
2023-05-25T16:08:30.558Z,45.76
2023-05-25T16:13:33.411Z,42.82
2023-05-25T16:18:36.312Z,38.48
2023-05-25T16:23:40.934Z,33.13
2023-05-25T16:28:43.966Z,30.90
2023-05-25T16:33:46.990Z,28.52
2023-05-25T16:38:51.268Z,29.39
2023-05-25T16:43:54.170Z,28.43
2023-05-25T16:48:57.127Z,27.29
2023-05-25T16:54:01.341Z,27.79
2023-05-25T16:59:04.257Z,27.31
2023-05-25T17:04:07.233Z,26.60
2023-05-25T17:09:12.441Z,25.96
2023-05-25T17:14:15.205Z,25.63
2023-05-25T17:19:18.383Z,24.88
2023-05-25T17:24:22.917Z,24.43
2023-05-25T17:29:25.899Z,23.92
2023-05-25T17:34:28.720Z,23.50
2023-05-25T17:39:32.912Z,23.16
2023-05-25T17:44:40.108Z,22.70
2023-05-25T17:49:43.081Z,22.31
2023-05-25T17:54:47.334Z,22.07
2023-05-25T17:59:50.405Z,21.79
2023-05-25T18:04:53.280Z,21.50
2023-05-25T18:09:57.490Z,21.32
2023-05-25T18:15:00.626Z,21.01
2023-05-25T18:20:03.571Z,20.69
2023-05-25T18:25:08.908Z,20.41
2023-05-25T18:30:12.786Z,20.19
2023-05-25T18:35:15.825Z,20.01
2023-05-25T18:40:20.544Z,19.70
2023-05-25T18:45:23.786Z,19.47
2023-05-25T18:50:27.128Z,19.19
2023-05-25T18:55:31.333Z,18.89
2023-05-25T19:00:34.351Z,18.58
2023-05-25T19:05:37.917Z,18.34
2023-05-25T19:10:42.383Z,18.11
2023-05-25T19:15:45.626Z,17.91
2023-05-25T19:20:48.996Z,17.74
2023-05-25T19:25:53.364Z,17.61
2023-05-25T19:30:56.411Z,17.49
2023-05-25T19:35:59.472Z,17.35
2023-05-25T19:41:03.742Z,17.21
2023-05-25T19:46:07.109Z,17.03
2023-05-25T19:51:10.146Z,16.79
2023-05-25T19:56:14.355Z,16.66
2023-05-25T20:01:17.418Z,16.56
2023-05-25T20:06:20.488Z,16.48
2023-05-25T20:11:24.815Z,16.39
2023-05-25T20:16:28.131Z,16.26
2023-05-25T20:21:31.077Z,16.17
2023-05-25T20:26:35.487Z,16.10
2023-05-25T20:31:38.405Z,15.99
2023-05-25T20:36:41.368Z,15.86
2023-05-25T20:41:45.635Z,15.73
2023-05-25T20:46:48.508Z,15.60
2023-05-25T20:51:51.549Z,15.51
2023-05-25T20:56:56.025Z,15.45
2023-05-25T21:01:58.920Z,15.41
2023-05-25T21:07:01.838Z,15.32
2023-05-25T21:12:07.591Z,15.30
2023-05-25T21:17:10.626Z,15.24
2023-05-25T21:22:14.226Z,15.16
2023-05-25T21:27:18.447Z,15.04
2023-05-25T21:32:21.262Z,14.85
2023-05-25T21:37:25.590Z,14.76
2023-05-25T21:42:29.836Z,14.65
2023-05-25T21:47:32.596Z,14.53
2023-05-25T21:52:35.351Z,14.40
2023-05-25T21:57:39.636Z,14.24
2023-05-25T22:02:42.625Z,14.11
2023-05-25T22:07:45.902Z,13.97
2023-05-25T22:12:50.049Z,13.84
2023-05-25T22:17:53.056Z,13.78
2023-05-25T22:22:56.106Z,13.67
2023-05-25T22:28:00.469Z,13.60
2023-05-25T22:33:03.399Z,13.51
2023-05-25T22:38:06.253Z,13.41
2023-05-25T22:43:12.772Z,13.35
2023-05-25T22:48:15.625Z,13.21
2023-05-25T22:53:18.442Z,13.11
2023-05-25T22:58:24.286Z,13.02
2023-05-25T23:03:27.251Z,12.93
2023-05-25T23:08:30.145Z,12.87
2023-05-25T23:13:34.488Z,12.77
2023-05-25T23:18:37.283Z,12.66
2023-05-25T23:23:40.135Z,12.57
2023-05-25T23:28:44.374Z,12.48
2023-05-25T23:33:47.177Z,12.37
2023-05-25T23:38:50.033Z,12.27
2023-05-25T23:43:54.238Z,12.25
2023-05-25T23:48:57.129Z,12.17
2023-05-25T23:53:59.964Z,12.08
2023-05-25T23:59:04.181Z,12.00
